Time;durP1;ratioP1;P1;durP2;ratioP2;P2;SDS_P1;SDS_P2;PMS_P1;PMS_P2;Temp;Humidity;BMP_temperature;BMP_pressure;BME280_temperature;BME280_humidity;BME280_pressure;Samples;Min_cycle;Max_cycle;Signal;HPM_P1;HPM_P2
2023/08/12 00:01:34;;;;;;;0.52;0.35;;;;;;;33.84;25.12;100909.53;5094426;28;20048;-82
2023/08/12 00:04:03;;;;;;;1.98;0.45;;;;;;;33.82;24.54;100905.25;5105013;28;20059;-81
2023/08/12 00:06:31;;;;;;;3.13;0.93;;;;;;;33.83;24.37;100907.81;5107962;28;20047;-79
2023/08/12 00:09:03;;;;;;;1.13;0.45;;;;;;;33.88;24.91;100900.34;5095483;28;20048;-78
2023/08/12 00:11:32;;;;;;;3.38;0.57;;;;;;;33.93;24.92;100892.81;5096879;28;20040;-81
2023/08/12 00:14:00;;;;;;;2.65;0.45;;;;;;;33.84;25.42;100892.59;5103802;28;20039;-78
2023/08/12 00:16:29;;;;;;;1.27;0.50;;;;;;;33.78;25.18;100900.06;5102154;28;20553;-79
2023/08/12 00:18:58;;;;;;;1.05;0.80;;;;;;;33.80;24.87;100910.69;5112551;28;20101;-81
2023/08/12 00:21:27;;;;;;;3.65;0.85;;;;;;;33.84;24.86;100890.75;5111123;28;20047;-80
2023/08/12 00:23:56;;;;;;;2.72;0.57;;;;;;;33.82;24.14;100895.34;5101577;28;20048;-73
2023/08/12 00:26:28;;;;;;;0.40;0.40;;;;;;;33.77;24.55;100894.81;5104470;28;20039;-81
2023/08/12 00:28:56;;;;;;;1.67;0.70;;;;;;;33.72;24.27;100894.22;5106696;28;20516;-78
2023/08/12 00:31:25;;;;;;;0.70;0.40;;;;;;;33.61;24.62;100883.38;5100894;28;20569;-76
2023/08/12 00:33:55;;;;;;;1.48;0.40;;;;;;;33.60;24.86;100893.22;5107717;28;20083;-78
2023/08/12 00:36:24;;;;;;;0.73;0.47;;;;;;;33.52;24.38;100882.97;5102802;28;20048;-82
2023/08/12 00:38:53;;;;;;;1.08;0.52;;;;;;;33.50;24.48;100890.25;5102488;28;20074;-82
2023/08/12 00:41:21;;;;;;;1.95;0.50;;;;;;;33.51;24.45;100886.63;5103228;28;20480;-80
2023/08/12 00:43:51;;;;;;;1.40;0.57;;;;;;;33.53;24.50;100891.84;5098289;28;20040;-81
2023/08/12 00:46:26;;;;;;;3.42;0.47;;;;;;;33.49;24.57;100883.16;5096221;28;20040;-82
2023/08/12 00:48:55;;;;;;;0.77;0.30;;;;;;;33.46;24.60;100883.34;5099466;28;20035;-82
2023/08/12 00:51:24;;;;;;;0.50;0.50;;;;;;;33.35;24.82;100881.38;5095376;28;20436;-82
2023/08/12 00:53:55;;;;;;;0.65;0.40;;;;;;;33.26;24.71;100881.97;5102915;28;20046;-80
2023/08/12 00:56:24;;;;;;;1.50;0.50;;;;;;;33.23;25.38;100883.97;5106056;28;20043;-82
2023/08/12 00:58:55;;;;;;;3.45;0.47;;;;;;;33.24;25.82;100886.56;5102125;28;20048;-83
2023/08/12 01:01:24;;;;;;;1.65;0.47;;;;;;;33.23;25.38;100892.00;5098312;28;20059;-79
2023/08/12 01:03:54;;;;;;;1.95;0.50;;;;;;;33.13;25.05;100881.88;5104001;28;20055;-80
2023/08/12 01:06:28;;;;;;;0.47;0.40;;;;;;;33.06;25.27;100877.00;5108573;28;20085;-83
2023/08/12 01:09:00;;;;;;;2.30;0.50;;;;;;;33.03;25.24;100891.41;5099376;28;20052;-80
2023/08/12 01:11:35;;;;;;;1.75;0.55;;;;;;;32.95;25.99;100889.22;5104471;28;20169;-76
2023/08/12 01:14:23;;;;;;;0.95;0.45;;;;;;;32.89;26.29;100884.22;5102259;28;20109;-72
2023/08/12 01:17:02;;;;;;;0.98;0.50;;;;;;;32.84;25.27;100882.81;5099259;28;20048;-78
2023/08/12 01:19:35;;;;;;;2.45;0.60;;;;;;;32.72;25.97;100885.28;5106804;28;20043;-76
2023/08/12 01:22:06;;;;;;;0.40;0.40;;;;;;;32.62;26.20;100875.22;5100009;28;20060;-75
2023/08/12 01:24:40;;;;;;;1.05;0.50;;;;;;;32.52;26.43;100872.25;5095589;28;20501;-79
2023/08/12 01:27:16;;;;;;;1.95;0.50;;;;;;;32.50;26.96;100876.78;5107009;28;20055;-78
2023/08/12 01:29:47;;;;;;;0.40;0.35;;;;;;;32.48;26.79;100879.59;5099259;28;20062;-77
2023/08/12 01:32:23;;;;;;;1.40;0.50;;;;;;;32.47;26.91;100877.00;5104424;28;20048;-78
2023/08/12 01:34:59;;;;;;;0.80;0.50;;;;;;;32.41;26.67;100875.53;5096493;28;20052;-81
2023/08/12 01:37:33;;;;;;;0.68;0.50;;;;;;;32.28;26.53;100872.75;5098040;28;20051;-80
2023/08/12 01:40:11;;;;;;;1.58;0.70;;;;;;;32.17;26.76;100880.53;5102438;28;20063;-77
2023/08/12 01:42:41;;;;;;;2.92;0.70;;;;;;;32.10;27.05;100884.53;5107609;28;20051;-78
2023/08/12 01:45:10;;;;;;;1.45;0.40;;;;;;;32.06;27.54;100888.34;5100723;28;20040;-77
2023/08/12 01:47:39;;;;;;;0.85;0.47;;;;;;;32.04;26.66;100892.91;5101823;28;20044;-78
2023/08/12 01:50:15;;;;;;;0.73;0.43;;;;;;;31.91;27.39;100880.22;5104348;28;20488;-78
2023/08/12 01:52:43;;;;;;;0.82;0.50;;;;;;;31.92;26.70;100887.28;5096659;28;20100;-77
2023/08/12 01:55:14;;;;;;;0.90;0.70;;;;;;;31.80;27.68;100885.34;5099427;28;20102;-81
2023/08/12 01:57:42;;;;;;;0.50;0.40;;;;;;;31.76;28.24;100890.94;5106669;28;20049;-82
2023/08/12 02:00:11;;;;;;;1.95;0.65;;;;;;;31.69;27.95;100887.75;5096999;28;20041;-79
2023/08/12 02:02:40;;;;;;;0.60;0.50;;;;;;;31.66;28.34;100890.63;5105846;28;20136;-80
2023/08/12 02:05:09;;;;;;;1.88;0.50;;;;;;;31.59;28.32;100895.44;5101467;28;20055;-76
2023/08/12 02:07:38;;;;;;;1.58;0.60;;;;;;;31.52;28.17;100894.06;5096931;28;20073;-79
2023/08/12 02:10:17;;;;;;;;;;;;;;;;;;;;;
2023/08/12 02:12:47;;;;;;;2.03;0.70;;;;;;;31.30;28.99;100883.66;5098816;28;20731;-82
2023/08/12 02:15:16;;;;;;;1.30;0.68;;;;;;;31.28;29.24;100898.91;5098136;28;20456;-80
2023/08/12 02:17:44;;;;;;;2.40;0.63;;;;;;;31.19;28.96;100902.09;5112107;28;20044;-82
2023/08/12 02:20:18;;;;;;;0.75;0.50;;;;;;;31.13;29.73;100907.78;5105572;28;20048;-82
2023/08/12 02:22:47;;;;;;;1.88;0.50;;;;;;;31.06;30.05;100905.44;5103075;28;20521;-83
2023/08/12 02:25:16;;;;;;;0.65;0.40;;;;;;;31.00;29.38;100907.59;5107902;28;20602;-83
2023/08/12 02:27:46;;;;;;;2.20;0.55;;;;;;;30.94;29.93;100914.09;5104184;28;20047;-80
2023/08/12 02:30:15;;;;;;;1.50;0.40;;;;;;;30.86;29.90;100916.34;5104542;28;20040;-81
2023/08/12 02:32:43;;;;;;;2.17;0.77;;;;;;;30.76;29.63;100915.03;5097807;28;20055;-81
2023/08/12 02:35:12;;;;;;;1.27;0.30;;;;;;;30.69;29.95;100923.41;5102861;28;20051;-77
2023/08/12 02:37:41;;;;;;;1.38;0.85;;;;;;;30.55;29.06;100917.88;5113702;28;20059;-80
2023/08/12 02:40:10;;;;;;;2.60;0.60;;;;;;;30.42;29.75;100932.81;5111439;28;20059;-78
2023/08/12 02:42:39;;;;;;;1.20;0.63;;;;;;;30.24;29.37;100932.78;5102266;28;20055;-80
2023/08/12 02:45:10;;;;;;;1.92;0.70;;;;;;;30.10;29.48;100937.94;5110158;28;20047;-87
2023/08/12 02:47:39;;;;;;;2.33;0.70;;;;;;;29.91;30.00;100937.09;5107493;28;20050;-78
2023/08/12 02:50:12;;;;;;;1.05;0.63;;;;;;;29.74;30.56;100946.78;5098721;28;20285;-78
2023/08/12 02:52:47;;;;;;;2.15;1.40;;;;;;;29.61;30.56;100945.59;5094436;28;20055;-76
2023/08/12 02:55:15;;;;;;;0.85;0.50;;;;;;;29.48;30.64;100949.75;5101841;28;20077;-73
2023/08/12 02:57:44;;;;;;;1.45;0.60;;;;;;;29.36;30.81;100954.72;5113283;28;20489;-79
2023/08/12 03:00:16;;;;;;;1.20;0.68;;;;;;;29.20;31.15;100951.88;5104796;28;20500;-82
2023/08/12 03:02:47;;;;;;;2.08;0.70;;;;;;;29.03;31.35;100955.28;5095768;28;20039;-80
2023/08/12 03:05:16;;;;;;;1.93;0.67;;;;;;;28.95;31.90;100954.75;5098497;28;20048;-76
2023/08/12 03:07:45;;;;;;;1.40;0.63;;;;;;;28.81;31.03;100951.81;5117608;27;20049;-81
2023/08/12 03:10:14;;;;;;;0.70;0.40;;;;;;;28.68;31.42;100955.94;5101314;27;20050;-80
2023/08/12 03:12:42;;;;;;;1.67;0.70;;;;;;;28.56;31.74;100960.84;5107557;27;20493;-80
2023/08/12 03:15:16;;;;;;;0.98;0.98;;;;;;;28.46;32.03;100954.16;5092134;28;20052;-75
2023/08/12 03:17:45;;;;;;;1.70;0.50;;;;;;;28.29;31.83;100949.56;5094421;28;20116;-75
2023/08/12 03:20:13;;;;;;;1.05;0.60;;;;;;;28.27;31.70;100963.88;5100412;28;20058;-77
2023/08/12 03:22:42;;;;;;;1.05;0.40;;;;;;;28.16;31.88;100961.63;5104718;28;20568;-80
2023/08/12 03:25:16;;;;;;;1.25;0.50;;;;;;;28.09;32.62;100960.16;5100275;28;20055;-78
2023/08/12 03:27:45;;;;;;;1.05;0.50;;;;;;;28.02;32.44;100964.84;5097380;28;20131;-81
2023/08/12 03:30:16;;;;;;;1.10;0.60;;;;;;;27.95;32.32;100968.69;5098853;27;20083;-76
2023/08/12 03:32:44;;;;;;;1.65;0.50;;;;;;;27.84;32.75;100966.44;5094231;28;20470;-75
2023/08/12 03:35:13;;;;;;;1.95;0.52;;;;;;;27.78;33.00;100971.94;5107707;28;20511;-75
2023/08/12 03:37:42;;;;;;;1.80;0.60;;;;;;;27.71;34.31;100976.63;5104946;28;20051;-73
2023/08/12 03:40:11;;;;;;;0.90;0.60;;;;;;;27.58;33.21;100970.06;5104481;28;20036;-76
2023/08/12 03:42:40;;;;;;;2.63;0.60;;;;;;;27.43;33.35;100968.00;5091290;28;20048;-76
2023/08/12 03:45:09;;;;;;;2.50;0.47;;;;;;;27.33;33.61;100981.63;5098817;28;20056;-76
2023/08/12 03:47:42;;;;;;;1.02;0.60;;;;;;;27.25;34.31;100978.34;5098561;28;20838;-77
2023/08/12 03:50:11;;;;;;;2.35;0.70;;;;;;;27.15;34.15;100982.25;5092122;28;20145;-80
2023/08/12 03:52:39;;;;;;;1.00;0.65;;;;;;;27.06;34.50;100978.13;5099372;28;20067;-81
2023/08/12 03:55:09;;;;;;;1.70;0.70;;;;;;;26.98;34.60;100984.63;5100427;28;20060;-75
2023/08/12 03:57:37;;;;;;;1.83;0.60;;;;;;;26.88;35.01;100992.91;5104351;28;20503;-77
2023/08/12 04:00:08;;;;;;;0.50;0.50;;;;;;;26.79;34.87;100998.53;5095726;27;20055;-77
2023/08/12 04:02:36;;;;;;;1.42;0.55;;;;;;;26.72;35.16;100997.88;5090615;28;20040;-74
2023/08/12 04:05:07;;;;;;;0.73;0.50;;;;;;;26.62;35.49;101003.53;5090904;28;20048;-79
2023/08/12 04:07:37;;;;;;;2.03;0.60;;;;;;;26.54;35.39;101009.97;5105175;28;20093;-75
2023/08/12 04:10:06;;;;;;;2.22;0.65;;;;;;;26.40;35.83;101019.28;5091529;28;20052;-75
2023/08/12 04:12:35;;;;;;;0.50;0.40;;;;;;;26.32;36.40;101017.75;5092536;28;20059;-76
2023/08/12 04:15:05;;;;;;;0.63;0.45;;;;;;;26.26;35.89;101017.06;5090655;28;20386;-79
2023/08/12 04:17:34;;;;;;;1.58;0.43;;;;;;;26.19;36.42;101020.84;5091795;28;20044;-77
2023/08/12 04:20:05;;;;;;;0.50;0.40;;;;;;;26.12;36.61;101021.00;5079181;28;20054;-78
2023/08/12 04:22:36;;;;;;;1.77;0.53;;;;;;;26.07;36.38;101022.09;5090651;28;20047;-77
2023/08/12 04:25:05;;;;;;;1.08;0.60;;;;;;;26.01;37.19;101035.53;5089407;28;20048;-75
2023/08/12 04:27:34;;;;;;;1.60;0.75;;;;;;;25.94;37.83;101032.19;5097629;28;20040;-76
2023/08/12 04:30:04;;;;;;;2.35;0.60;;;;;;;25.80;37.30;101037.00;5099492;28;20071;-76
2023/08/12 04:32:35;;;;;;;0.80;0.43;;;;;;;25.74;36.25;101042.47;5104071;28;20127;-77
2023/08/12 04:35:04;;;;;;;0.55;0.40;;;;;;;25.67;37.38;101047.06;5103355;28;20090;-78
2023/08/12 04:37:46;;;;;;;0.98;0.60;;;;;;;25.58;38.23;101045.56;5108535;28;20768;-74
2023/08/12 04:40:19;;;;;;;1.10;0.50;;;;;;;25.49;38.46;101049.34;5108314;28;20109;-76
2023/08/12 04:42:48;;;;;;;1.88;0.50;;;;;;;25.44;39.36;101050.38;5095139;28;20044;-76
2023/08/12 04:45:16;;;;;;;1.00;0.63;;;;;;;25.38;39.08;101063.78;5107894;28;20104;-81
2023/08/12 04:47:45;;;;;;;1.75;0.63;;;;;;;25.31;39.74;101062.22;5091115;28;20048;-77
2023/08/12 04:50:21;;;;;;;1.85;0.70;;;;;;;25.29;40.02;101075.50;5090867;28;20047;-76
2023/08/12 04:52:51;;;;;;;3.40;0.57;;;;;;;25.23;39.60;101071.22;5095023;28;20055;-77
2023/08/12 04:55:20;;;;;;;1.00;0.50;;;;;;;25.20;39.73;101075.75;5091285;28;20098;-73
2023/08/12 04:57:49;;;;;;;3.30;0.60;;;;;;;25.14;39.64;101076.72;5106784;28;20043;-75
2023/08/12 05:00:17;;;;;;;3.90;0.70;;;;;;;25.08;39.94;101077.78;5103611;27;20112;-73
2023/08/12 05:02:46;;;;;;;1.58;0.70;;;;;;;25.03;39.66;101074.34;5103817;28;20044;-79
2023/08/12 05:05:14;;;;;;;1.50;0.68;;;;;;;24.97;40.29;101089.53;5089004;28;20056;-76
2023/08/12 05:07:44;;;;;;;1.10;0.50;;;;;;;24.95;40.39;101091.38;5090567;28;20052;-78
2023/08/12 05:10:14;;;;;;;1.05;0.57;;;;;;;24.91;40.60;101084.41;5089078;28;20083;-77
2023/08/12 05:12:43;;;;;;;0.88;0.65;;;;;;;24.86;39.95;101093.31;5090715;28;20060;-77
2023/08/12 05:15:12;;;;;;;1.23;0.70;;;;;;;24.81;40.52;101100.50;5100180;28;20054;-78
2023/08/12 05:17:41;;;;;;;0.52;0.38;;;;;;;24.71;40.35;101103.41;5092564;28;20169;-76
2023/08/12 05:20:10;;;;;;;2.05;0.60;;;;;;;24.65;40.30;101107.06;5094108;28;20068;-82
2023/08/12 05:22:39;;;;;;;1.70;0.50;;;;;;;24.63;40.89;101111.53;5092353;28;20063;-82
2023/08/12 05:25:11;;;;;;;3.28;0.55;;;;;;;24.63;40.71;101117.69;5090583;28;20055;-79
2023/08/12 05:27:41;;;;;;;1.63;0.65;;;;;;;24.64;40.63;101116.75;5103804;28;20249;-77
2023/08/12 05:30:16;;;;;;;3.95;0.80;;;;;;;24.60;40.62;101122.16;5090376;28;20083;-77
2023/08/12 05:32:52;;;;;;;4.28;0.70;;;;;;;24.52;40.91;101126.78;5097856;28;20051;-77
2023/08/12 05:35:20;;;;;;;0.88;0.50;;;;;;;24.44;41.13;101127.78;5096618;28;20104;-78
2023/08/12 05:37:49;;;;;;;2.38;0.63;;;;;;;24.39;41.76;101136.72;5102989;28;20047;-75
2023/08/12 05:40:17;;;;;;;2.08;0.60;;;;;;;24.23;42.03;101133.53;5108113;28;20127;-76
2023/08/12 05:42:48;;;;;;;3.55;0.50;;;;;;;24.03;43.05;101137.47;5090728;28;20094;-79
2023/08/12 05:45:16;;;;;;;0.73;0.52;;;;;;;23.96;42.69;101135.84;5097783;28;20052;-74
2023/08/12 05:47:45;;;;;;;2.22;0.60;;;;;;;23.93;43.36;101141.16;5104052;28;20062;-76
2023/08/12 05:50:13;;;;;;;0.63;0.55;;;;;;;23.92;43.32;101139.44;5117079;28;20050;-81
2023/08/12 05:52:49;;;;;;;0.90;0.60;;;;;;;23.84;43.60;101146.63;5115400;28;20117;-80
2023/08/12 05:55:17;;;;;;;1.88;0.43;;;;;;;23.74;43.99;101150.34;5117882;28;20059;-79
2023/08/12 05:57:48;;;;;;;1.50;0.50;;;;;;;23.67;43.48;101149.56;5131736;28;20283;-82
2023/08/12 06:00:16;;;;;;;1.50;0.60;;;;;;;23.62;43.93;101146.16;5122058;27;20055;-81
2023/08/12 06:02:45;;;;;;;1.00;0.70;;;;;;;23.60;44.41;101151.47;5108305;28;20519;-80
2023/08/12 06:05:23;;;;;;;0.88;0.60;;;;;;;23.56;44.25;101152.41;5094475;28;20105;-75
2023/08/12 06:07:52;;;;;;;1.73;0.60;;;;;;;23.53;45.32;101156.91;5110639;28;20335;-78
2023/08/12 06:10:20;;;;;;;0.93;0.50;;;;;;;23.50;45.13;101156.94;5101394;28;20082;-79
2023/08/12 06:12:53;;;;;;;1.02;0.50;;;;;;;23.42;46.04;101157.06;5103456;28;20039;-76
2023/08/12 06:15:22;;;;;;;0.65;0.57;;;;;;;23.33;46.36;101165.16;5102913;28;20109;-77
2023/08/12 06:17:50;;;;;;;3.63;0.60;;;;;;;23.28;46.63;101169.66;5108356;28;20056;-83
2023/08/12 06:20:19;;;;;;;2.70;0.60;;;;;;;23.19;47.20;101166.25;5096706;28;20052;-77
2023/08/12 06:22:49;;;;;;;0.98;0.65;;;;;;;23.13;47.20;101173.38;5097836;28;20457;-78
2023/08/12 06:25:25;;;;;;;2.75;0.60;;;;;;;22.99;47.98;101168.31;5095931;28;20079;-79
2023/08/12 06:27:58;;;;;;;1.92;0.70;;;;;;;22.88;48.76;101173.72;5114578;28;20051;-76
2023/08/12 06:30:38;;;;;;;1.77;0.80;;;;;;;22.80;48.82;101172.97;5098902;28;20056;-78
2023/08/12 06:33:13;;;;;;;3.17;0.75;;;;;;;22.74;49.64;101179.19;5099208;28;20063;-76
2023/08/12 06:35:41;;;;;;;1.73;0.57;;;;;;;22.71;48.29;101181.03;5109708;28;20050;-77
2023/08/12 06:38:10;;;;;;;2.38;0.65;;;;;;;22.69;49.69;101181.03;5102875;28;20050;-82
2023/08/12 06:40:46;;;;;;;0.60;0.60;;;;;;;22.61;48.69;101180.28;5100674;28;20074;-79
2023/08/12 06:43:17;;;;;;;2.65;0.75;;;;;;;22.54;49.02;101179.50;5104050;28;20390;-78
2023/08/12 06:45:45;;;;;;;1.00;0.52;;;;;;;22.50;49.89;101187.47;5099609;28;20056;-80
2023/08/12 06:48:14;;;;;;;2.38;0.88;;;;;;;22.44;50.06;101190.16;5114987;28;20043;-79
2023/08/12 06:50:55;;;;;;;1.00;0.70;;;;;;;22.38;49.50;101189.38;5097020;28;20052;-79
2023/08/12 06:53:24;;;;;;;2.60;0.70;;;;;;;22.36;49.88;101191.16;5098095;28;20166;-77
2023/08/12 06:55:53;;;;;;;0.93;0.50;;;;;;;22.33;50.27;101196.47;5098987;28;20579;-78
2023/08/12 06:58:25;;;;;;;2.38;0.70;;;;;;;22.30;50.40;101188.56;5111194;27;20462;-82
2023/08/12 07:00:53;;;;;;;1.35;0.60;;;;;;;22.26;50.03;101197.41;5096614;28;20105;-78
2023/08/12 07:03:22;;;;;;;1.10;0.60;;;;;;;22.24;50.38;101191.31;5099915;28;20072;-79
2023/08/12 07:05:50;;;;;;;1.70;0.43;;;;;;;22.20;49.62;101192.19;5112281;28;20039;-82
2023/08/12 07:08:19;;;;;;;1.67;0.60;;;;;;;22.19;49.79;101185.16;5102543;28;20063;-81
2023/08/12 07:10:48;;;;;;;1.25;0.60;;;;;;;22.16;49.75;101180.78;5102877;28;20075;-80
2023/08/12 07:13:16;;;;;;;0.90;0.63;;;;;;;22.15;50.02;101180.81;5099968;28;20054;-81
2023/08/12 07:15:46;;;;;;;0.80;0.57;;;;;;;22.12;50.37;101186.13;5101551;28;20070;-81
2023/08/12 07:18:15;;;;;;;2.08;0.65;;;;;;;22.09;50.39;101187.03;5112104;28;20044;-80
2023/08/12 07:20:44;;;;;;;0.90;0.60;;;;;;;22.07;50.41;101187.94;5101973;28;20101;-81
2023/08/12 07:23:12;;;;;;;0.90;0.50;;;;;;;22.06;50.54;101194.09;5111046;28;20084;-82
2023/08/12 07:25:41;;;;;;;0.95;0.70;;;;;;;22.04;50.44;101193.25;5104725;28;20047;-80
2023/08/12 07:28:09;;;;;;;0.60;0.50;;;;;;;22.00;50.80;101197.69;5117631;28;20550;-82
2023/08/12 07:30:38;;;;;;;1.13;0.60;;;;;;;21.99;50.40;101200.31;5114341;28;20040;-82
2023/08/12 07:33:13;;;;;;;0.88;0.52;;;;;;;21.99;50.86;101205.59;5095273;28;20445;-81
2023/08/12 07:35:42;;;;;;;1.48;0.55;;;;;;;21.94;51.04;101208.28;5097892;28;20566;-80
2023/08/12 07:38:10;;;;;;;3.22;0.55;;;;;;;21.91;50.99;101213.56;5102474;28;20507;-86
2023/08/12 07:40:39;;;;;;;1.10;0.55;;;;;;;21.86;51.36;101225.94;5089700;28;20478;-83
2023/08/12 07:43:07;;;;;;;0.98;0.50;;;;;;;21.82;51.32;101222.44;5080334;28;20052;-81
2023/08/12 07:45:44;;;;;;;0.52;0.40;;;;;;;21.77;51.41;101221.63;5088526;28;20051;-80
2023/08/12 07:48:14;;;;;;;0.52;0.40;;;;;;;21.75;51.68;101223.38;5094172;28;20040;-80
2023/08/12 07:50:42;;;;;;;1.25;0.60;;;;;;;21.70;52.03;101219.94;5097999;28;20066;-82
2023/08/12 07:53:13;;;;;;;2.55;0.77;;;;;;;21.64;51.86;101222.59;5102495;28;20055;-79
2023/08/12 07:55:41;;;;;;;2.78;0.50;;;;;;;21.61;51.77;101227.91;5102013;28;20086;-82
2023/08/12 07:58:10;;;;;;;1.05;0.50;;;;;;;21.57;51.99;101227.06;5093554;28;20082;-79
2023/08/12 08:00:38;;;;;;;1.08;0.70;;;;;;;21.56;51.76;101233.22;5092237;28;20048;-80
2023/08/12 08:03:07;;;;;;;1.77;0.60;;;;;;;21.56;51.91;101237.63;5091358;28;20036;-82
2023/08/12 08:05:45;;;;;;;1.95;0.77;;;;;;;21.57;52.11;101239.34;5101249;28;20052;-83
2023/08/12 08:08:14;;;;;;;0.38;0.32;;;;;;;21.58;52.08;101259.53;5091908;28;20052;-81
2023/08/12 08:10:42;;;;;;;0.38;0.30;;;;;;;21.53;52.25;101252.56;5091651;28;20127;-82
2023/08/12 08:13:11;;;;;;;1.45;0.50;;;;;;;21.51;51.94;101251.69;5087948;28;20040;-82
2023/08/12 08:15:44;;;;;;;0.82;0.50;;;;;;;21.47;52.14;101249.09;5087292;28;20045;-83
2023/08/12 08:18:13;;;;;;;1.10;0.60;;;;;;;21.42;52.53;101246.50;5087873;28;20111;-80
2023/08/12 08:20:44;;;;;;;0.80;0.63;;;;;;;21.35;53.01;101250.03;5081430;28;20044;-79
2023/08/12 08:23:12;;;;;;;0.80;0.32;;;;;;;21.31;54.12;101259.69;5080108;28;20047;-85
2023/08/12 08:25:47;;;;;;;1.38;0.60;;;;;;;21.19;53.66;101249.25;5084411;28;20048;-81
2023/08/12 08:28:16;;;;;;;0.77;0.60;;;;;;;21.20;53.59;101255.38;5087340;28;20040;-85
2023/08/12 08:30:44;;;;;;;0.88;0.60;;;;;;;21.17;53.88;101260.69;5087779;28;20048;-83
2023/08/12 08:33:13;;;;;;;1.13;0.50;;;;;;;21.13;54.47;101262.44;5103107;28;20056;-82
2023/08/12 08:35:50;;;;;;;1.10;0.60;;;;;;;21.09;54.35;101263.34;5111194;28;20054;-83
2023/08/12 08:38:19;;;;;;;1.60;0.50;;;;;;;21.03;54.11;101251.09;5103830;28;20046;-80
2023/08/12 08:40:47;;;;;;;1.33;0.50;;;;;;;20.98;54.22;101255.53;5116359;28;20043;-82
2023/08/12 08:43:21;;;;;;;0.93;0.60;;;;;;;20.90;54.93;101257.31;5117281;28;20043;-83
2023/08/12 08:45:54;;;;;;;0.95;0.65;;;;;;;20.83;55.08;101255.59;5118600;28;20044;-82
2023/08/12 08:48:23;;;;;;;1.70;0.50;;;;;;;20.81;55.40;101262.63;5125930;28;20237;-81
2023/08/12 08:50:53;;;;;;;0.63;0.50;;;;;;;20.77;55.51;101255.63;5123158;28;20085;-82
2023/08/12 08:53:22;;;;;;;0.60;0.60;;;;;;;20.73;55.84;101252.16;5120227;28;20036;-82
2023/08/12 08:55:55;;;;;;;1.00;0.52;;;;;;;20.66;56.14;101264.44;5124719;28;20040;-83
2023/08/12 08:58:24;;;;;;;0.40;0.40;;;;;;;20.62;56.77;101261.84;5123175;28;20111;-84
2023/08/12 09:00:52;;;;;;;2.05;0.65;;;;;;;20.58;56.43;101260.97;5114704;28;20044;-83
2023/08/12 09:03:23;;;;;;;1.70;0.50;;;;;;;20.55;56.27;101263.56;5118537;28;20039;-81
2023/08/12 09:05:57;;;;;;;0.80;0.40;;;;;;;20.51;56.27;101264.47;5103489;28;20052;-84
2023/08/12 09:08:27;;;;;;;1.10;0.45;;;;;;;20.48;56.25;101272.38;5104216;28;20090;-82
2023/08/12 09:10:58;;;;;;;1.00;0.40;;;;;;;20.42;56.31;101261.84;5110002;28;20040;-81
2023/08/12 09:13:30;;;;;;;0.57;0.50;;;;;;;20.40;57.59;101266.25;5091882;28;20122;-81
2023/08/12 09:16:01;;;;;;;0.73;0.40;;;;;;;20.37;56.97;101274.16;5098601;28;20044;-82
2023/08/12 09:18:32;;;;;;;1.55;0.63;;;;;;;20.34;56.61;101272.41;5107163;28;20142;-81
2023/08/12 09:21:03;;;;;;;0.63;0.43;;;;;;;20.34;57.45;101282.03;5096457;28;20045;-81
2023/08/12 09:23:37;;;;;;;1.38;0.47;;;;;;;20.30;57.82;101282.03;5105918;28;20404;-82
2023/08/12 09:26:15;;;;;;;1.13;0.68;;;;;;;20.28;57.22;101283.78;5114394;28;20050;-81
2023/08/12 09:28:44;;;;;;;0.60;0.43;;;;;;;20.25;57.02;101278.56;5116431;27;20171;-82
2023/08/12 09:31:25;;;;;;;0.73;0.57;;;;;;;20.20;56.98;101274.16;5112654;28;20044;-82
2023/08/12 09:33:54;;;;;;;0.90;0.55;;;;;;;20.17;58.40;101275.06;5089337;28;20669;-82
2023/08/12 09:36:25;;;;;;;0.55;0.45;;;;;;;20.16;57.70;101277.66;5086501;28;20501;-84
2023/08/12 09:38:54;;;;;;;0.53;0.40;;;;;;;20.14;57.82;101274.19;5091761;28;20047;-82
2023/08/12 09:41:26;;;;;;;1.10;0.40;;;;;;;20.11;58.07;101280.31;5080872;28;20132;-82
2023/08/12 09:43:54;;;;;;;1.85;0.40;;;;;;;20.10;57.80;101278.56;5087880;28;20052;-84
2023/08/12 09:46:24;;;;;;;0.77;0.60;;;;;;;20.08;58.34;101275.06;5075497;28;20048;-84
2023/08/12 09:48:54;;;;;;;1.58;0.77;;;;;;;20.10;58.27;101278.56;5089397;28;20055;-83
2023/08/12 09:51:27;;;;;;;1.00;0.63;;;;;;;20.11;57.98;101277.69;5093704;28;20048;-82
2023/08/12 09:53:55;;;;;;;0.57;0.40;;;;;;;20.11;57.89;101280.31;5081848;28;20051;-83
2023/08/12 09:56:42;;;;;;;0.80;0.60;;;;;;;20.09;57.77;101280.31;5078794;28;20044;-84
2023/08/12 09:59:12;;;;;;;0.90;0.52;;;;;;;20.06;57.73;101292.56;5087738;28;20041;-83
2023/08/12 10:01:43;;;;;;;2.85;0.95;;;;;;;20.01;58.30;101289.97;5081032;28;20664;-82
2023/08/12 10:04:13;;;;;;;0.70;0.40;;;;;;;19.97;58.23;101287.34;5082661;28;20076;-81
2023/08/12 10:06:49;;;;;;;0.90;0.52;;;;;;;19.81;57.98;101279.50;5087147;28;20044;-82
2023/08/12 10:09:18;;;;;;;0.73;0.50;;;;;;;19.85;58.28;101298.72;5080203;28;20119;-83
2023/08/12 10:11:48;;;;;;;1.05;0.50;;;;;;;19.81;58.42;101302.22;5085675;28;20075;-82
2023/08/12 10:14:17;;;;;;;1.30;0.45;;;;;;;19.77;59.00;101306.63;5079204;28;20536;-83
2023/08/12 10:16:48;;;;;;;0.93;0.47;;;;;;;19.71;58.83;101306.59;5092947;28;20067;-82
2023/08/12 10:19:19;;;;;;;0.90;0.50;;;;;;;19.66;58.95;101309.19;5093294;28;20044;-83
2023/08/12 10:21:51;;;;;;;1.10;0.57;;;;;;;19.64;59.06;101310.06;5087485;28;20674;-83
2023/08/12 10:24:20;;;;;;;0.90;0.50;;;;;;;19.61;59.34;101308.31;5098157;28;20065;-81
2023/08/12 10:26:52;;;;;;;1.17;0.50;;;;;;;19.58;59.33;101305.66;5088596;28;20040;-84
2023/08/12 10:29:21;;;;;;;0.85;0.43;;;;;;;19.56;59.78;101309.16;5085587;28;20044;-84
2023/08/12 10:31:50;;;;;;;1.20;0.40;;;;;;;19.52;59.63;101310.94;5088307;28;20392;-84
2023/08/12 10:34:26;;;;;;;0.60;0.50;;;;;;;19.49;60.11;101304.78;5117708;28;20073;-84
2023/08/12 10:36:59;;;;;;;0.60;0.40;;;;;;;19.49;60.19;101310.03;5112207;28;20052;-82
2023/08/12 10:39:28;;;;;;;2.17;0.57;;;;;;;19.45;60.35;101315.28;5102219;28;20039;-82
2023/08/12 10:41:57;;;;;;;3.28;0.90;;;;;;;19.41;60.46;101307.41;5104909;28;20054;-84
2023/08/12 10:44:43;;;;;;;1.02;0.70;;;;;;;19.39;60.37;101310.03;5118127;28;20052;-83
2023/08/12 10:47:13;;;;;;;0.88;0.52;;;;;;;19.37;60.79;101311.75;5100787;28;20055;-82
2023/08/12 10:49:47;;;;;;;2.92;0.60;;;;;;;19.28;60.46;101301.25;5108818;28;20048;-79
2023/08/12 10:52:29;;;;;;;0.50;0.28;;;;;;;19.33;60.36;101315.25;5098933;28;20062;-83
2023/08/12 10:55:18;;;;;;;0.98;0.40;;;;;;;19.31;60.24;101324.88;5109163;28;20052;-82
2023/08/12 10:57:47;;;;;;;0.50;0.50;;;;;;;19.29;59.97;101324.00;5114867;28;20048;-83
2023/08/12 11:00:17;;;;;;;1.80;0.50;;;;;;;19.30;60.84;101325.75;5100347;28;20070;-83
2023/08/12 11:03:07;;;;;;;0.75;0.30;;;;;;;19.25;60.61;101320.50;5116390;28;20043;-83
2023/08/12 11:05:39;;;;;;;0.63;0.43;;;;;;;19.24;60.29;101320.47;5111245;28;20670;-82
2023/08/12 11:08:14;;;;;;;0.40;0.40;;;;;;;19.22;60.83;101323.13;5113006;28;20069;-83
2023/08/12 11:10:44;;;;;;;1.98;0.57;;;;;;;19.21;60.48;101330.97;5109892;28;20466;-82
2023/08/12 11:13:16;;;;;;;0.65;0.40;;;;;;;19.15;60.70;101320.44;5104179;28;20040;-83
2023/08/12 11:15:46;;;;;;;;;;;;;;;19.14;60.81;101323.94;5106814;28;20047;-84
2023/08/12 11:18:17;;;;;;;0.65;0.50;;;;;;;19.11;61.07;101326.56;5111355;28;19970;-82
2023/08/12 11:20:46;;;;;;;1.85;0.50;;;;;;;19.11;61.06;101329.19;5119634;28;20044;-83
2023/08/12 11:23:20;;;;;;;0.75;0.50;;;;;;;19.10;61.11;101327.44;5100161;28;20039;-79
2023/08/12 11:25:56;;;;;;;0.90;0.50;;;;;;;19.07;61.21;101330.06;5110346;28;20046;-83
2023/08/12 11:28:26;;;;;;;0.55;0.40;;;;;;;19.05;61.55;101336.16;5111249;28;20104;-82
2023/08/12 11:30:54;;;;;;;0.60;0.40;;;;;;;19.02;61.22;101330.91;5099509;28;20048;-82
2023/08/12 11:33:23;;;;;;;0.85;0.40;;;;;;;19.00;61.63;101326.53;5101179;28;20096;-81
2023/08/12 11:35:55;;;;;;;0.45;0.32;;;;;;;18.92;62.33;101325.59;5110853;27;20051;-82
2023/08/12 11:38:27;;;;;;;0.57;0.40;;;;;;;18.86;62.87;101331.72;5109480;28;20496;-83
2023/08/12 11:40:56;;;;;;;2.63;0.60;;;;;;;18.84;62.61;101325.59;5106116;28;20044;-83
2023/08/12 11:43:26;;;;;;;3.00;0.63;;;;;;;18.81;63.00;101325.59;5099753;28;20114;-81